sensor_id;sensor_type;location;lat;lon;timestamp;temperature;humidity
41310;DHT22;27057;51.438;-0.010;2024-03-23T00:55:04;6.50;99.90
41310;DHT22;27057;51.438;-0.010;2024-03-23T00:57:31;6.50;99.90
41310;DHT22;27057;51.438;-0.010;2024-03-23T00:59:57;6.50;99.90
41310;DHT22;27057;51.438;-0.010;2024-03-23T01:02:23;6.50;99.90
41310;DHT22;27057;51.438;-0.010;2024-03-23T01:04:50;6.50;99.90
41310;DHT22;27057;51.438;-0.010;2024-03-23T01:07:17;6.50;99.90
41310;DHT22;27057;51.438;-0.010;2024-03-23T01:09:43;6.40;99.90
41310;DHT22;27057;51.438;-0.010;2024-03-23T01:12:10;6.50;99.90
41310;DHT22;27057;51.438;-0.010;2024-03-23T01:14:36;6.50;99.90
41310;DHT22;27057;51.438;-0.010;2024-03-23T01:17:02;6.50;99.90
41310;DHT22;27057;51.438;-0.010;2024-03-23T01:19:29;6.50;99.90
41310;DHT22;27057;51.438;-0.010;2024-03-23T01:21:55;6.40;99.90
41310;DHT22;27057;51.438;-0.010;2024-03-23T01:24:21;6.40;99.90
41310;DHT22;27057;51.438;-0.010;2024-03-23T01:26:48;6.40;99.90
41310;DHT22;27057;51.438;-0.010;2024-03-23T01:29:15;6.40;99.90
41310;DHT22;27057;51.438;-0.010;2024-03-23T01:31:42;6.40;99.90
41310;DHT22;27057;51.438;-0.010;2024-03-23T01:34:08;6.40;99.90
41310;DHT22;27057;51.438;-0.010;2024-03-23T01:36:35;6.40;99.90
41310;DHT22;27057;51.438;-0.010;2024-03-23T01:39:01;6.40;99.90
41310;DHT22;27057;51.438;-0.010;2024-03-23T01:41:28;6.40;99.90
41310;DHT22;27057;51.438;-0.010;2024-03-23T01:43:58;6.40;99.90
41310;DHT22;27057;51.438;-0.010;2024-03-23T01:46:27;6.40;99.90
41310;DHT22;27057;51.438;-0.010;2024-03-23T01:48:54;6.30;99.90
41310;DHT22;27057;51.438;-0.010;2024-03-23T01:51:20;6.40;99.90
41310;DHT22;27057;51.438;-0.010;2024-03-23T01:53:47;6.40;99.90
41310;DHT22;27057;51.438;-0.010;2024-03-23T01:56:13;6.40;99.90
41310;DHT22;27057;51.438;-0.010;2024-03-23T01:58:40;6.30;99.90
41310;DHT22;27057;51.438;-0.010;2024-03-23T02:01:06;6.30;99.90
41310;DHT22;27057;51.438;-0.010;2024-03-23T02:03:33;6.30;99.90
41310;DHT22;27057;51.438;-0.010;2024-03-23T02:05:59;6.30;99.90
41310;DHT22;27057;51.438;-0.010;2024-03-23T02:08:26;6.30;99.90
41310;DHT22;27057;51.438;-0.010;2024-03-23T02:10:53;6.30;99.90
41310;DHT22;27057;51.438;-0.010;2024-03-23T02:13:19;6.20;99.90
41310;DHT22;27057;51.438;-0.010;2024-03-23T02:15:46;6.20;99.90
41310;DHT22;27057;51.438;-0.010;2024-03-23T02:18:12;6.20;99.90
41310;DHT22;27057;51.438;-0.010;2024-03-23T02:20:40;6.20;99.90
41310;DHT22;27057;51.438;-0.010;2024-03-23T02:23:16;6.20;99.90
41310;DHT22;27057;51.438;-0.010;2024-03-23T02:25:43;6.20;99.90
41310;DHT22;27057;51.438;-0.010;2024-03-23T02:28:09;6.20;99.90
41310;DHT22;27057;51.438;-0.010;2024-03-23T02:30:35;6.20;99.90
41310;DHT22;27057;51.438;-0.010;2024-03-23T02:33:02;6.20;99.90
41310;DHT22;27057;51.438;-0.010;2024-03-23T02:35:28;6.10;99.90
41310;DHT22;27057;51.438;-0.010;2024-03-23T02:37:55;6.10;99.90
41310;DHT22;27057;51.438;-0.010;2024-03-23T02:40:23;6.10;99.90
41310;DHT22;27057;51.438;-0.010;2024-03-23T02:42:49;6.10;99.90
41310;DHT22;27057;51.438;-0.010;2024-03-23T02:45:17;6.00;99.90
41310;DHT22;27057;51.438;-0.010;2024-03-23T02:47:43;6.00;99.90
41310;DHT22;27057;51.438;-0.010;2024-03-23T02:50:10;6.00;99.90
41310;DHT22;27057;51.438;-0.010;2024-03-23T02:52:37;5.90;99.90
41310;DHT22;27057;51.438;-0.010;2024-03-23T02:55:03;5.90;99.90
41310;DHT22;27057;51.438;-0.010;2024-03-23T02:57:30;5.90;99.90
41310;DHT22;27057;51.438;-0.010;2024-03-23T02:59:57;5.80;99.90
41310;DHT22;27057;51.438;-0.010;2024-03-23T03:02:23;5.90;99.90
41310;DHT22;27057;51.438;-0.010;2024-03-23T03:04:49;5.80;99.90
41310;DHT22;27057;51.438;-0.010;2024-03-23T03:07:16;5.80;99.90
41310;DHT22;27057;51.438;-0.010;2024-03-23T03:09:42;5.80;99.90
41310;DHT22;27057;51.438;-0.010;2024-03-23T03:12:09;5.80;99.90
41310;DHT22;27057;51.438;-0.010;2024-03-23T03:14:35;5.80;99.90
41310;DHT22;27057;51.438;-0.010;2024-03-23T03:17:01;5.70;99.90
41310;DHT22;27057;51.438;-0.010;2024-03-23T03:19:28;5.70;99.90
41310;DHT22;27057;51.438;-0.010;2024-03-23T03:21:54;5.70;99.90
41310;DHT22;27057;51.438;-0.010;2024-03-23T03:24:21;5.70;99.90
41310;DHT22;27057;51.438;-0.010;2024-03-23T03:26:47;5.70;99.90
41310;DHT22;27057;51.438;-0.010;2024-03-23T03:29:14;5.60;99.90
41310;DHT22;27057;51.438;-0.010;2024-03-23T03:31:40;5.60;99.90
41310;DHT22;27057;51.438;-0.010;2024-03-23T03:34:07;5.60;99.90
41310;DHT22;27057;51.438;-0.010;2024-03-23T03:36:34;5.60;99.90
41310;DHT22;27057;51.438;-0.010;2024-03-23T03:39:00;5.60;99.90
41310;DHT22;27057;51.438;-0.010;2024-03-23T03:41:26;5.60;99.90
41310;DHT22;27057;51.438;-0.010;2024-03-23T03:43:53;5.60;99.90
41310;DHT22;27057;51.438;-0.010;2024-03-23T03:46:19;5.60;99.90
41310;DHT22;27057;51.438;-0.010;2024-03-23T03:48:46;5.60;99.90
41310;DHT22;27057;51.438;-0.010;2024-03-23T03:51:14;5.60;99.90
41310;DHT22;27057;51.438;-0.010;2024-03-23T03:53:40;5.50;99.90
41310;DHT22;27057;51.438;-0.010;2024-03-23T03:56:06;5.60;99.90
41310;DHT22;27057;51.438;-0.010;2024-03-23T03:58:33;5.50;99.90
41310;DHT22;27057;51.438;-0.010;2024-03-23T04:00:59;5.50;99.90
41310;DHT22;27057;51.438;-0.010;2024-03-23T04:03:26;5.50;99.90
41310;DHT22;27057;51.438;-0.010;2024-03-23T04:05:53;5.50;99.90
41310;DHT22;27057;51.438;-0.010;2024-03-23T04:08:20;5.50;99.90
41310;DHT22;27057;51.438;-0.010;2024-03-23T04:10:47;5.40;99.90
41310;DHT22;27057;51.438;-0.010;2024-03-23T04:13:15;5.50;99.90
41310;DHT22;27057;51.438;-0.010;2024-03-23T04:15:42;5.50;99.90
41310;DHT22;27057;51.438;-0.010;2024-03-23T04:18:08;5.50;99.90
41310;DHT22;27057;51.438;-0.010;2024-03-23T04:20:35;5.50;99.90
41310;DHT22;27057;51.438;-0.010;2024-03-23T04:23:01;5.40;99.90
41310;DHT22;27057;51.438;-0.010;2024-03-23T04:25:28;5.40;99.90
41310;DHT22;27057;51.438;-0.010;2024-03-23T04:27:54;5.40;99.90
41310;DHT22;27057;51.438;-0.010;2024-03-23T04:30:20;5.40;99.90
41310;DHT22;27057;51.438;-0.010;2024-03-23T04:32:47;5.40;99.90
41310;DHT22;27057;51.438;-0.010;2024-03-23T04:35:14;5.40;99.90
41310;DHT22;27057;51.438;-0.010;2024-03-23T04:37:40;5.30;99.90
41310;DHT22;27057;51.438;-0.010;2024-03-23T04:40:07;5.30;99.90
41310;DHT22;27057;51.438;-0.010;2024-03-23T04:42:34;5.30;99.90
41310;DHT22;27057;51.438;-0.010;2024-03-23T04:45:00;5.30;99.90
41310;DHT22;27057;51.438;-0.010;2024-03-23T04:47:27;5.20;99.90
41310;DHT22;27057;51.438;-0.010;2024-03-23T04:49:55;5.20;99.90
41310;DHT22;27057;51.438;-0.010;2024-03-23T04:52:23;5.20;99.90
41310;DHT22;27057;51.438;-0.010;2024-03-23T04:54:50;5.20;99.90
41310;DHT22;27057;51.438;-0.010;2024-03-23T04:57:16;5.20;99.90
41310;DHT22;27057;51.438;-0.010;2024-03-23T04:59:46;5.10;99.90
41310;DHT22;27057;51.438;-0.010;2024-03-23T05:02:14;5.10;99.90
41310;DHT22;27057;51.438;-0.010;2024-03-23T05:04:42;5.10;99.90
41310;DHT22;27057;51.438;-0.010;2024-03-23T05:07:09;5.10;99.90
41310;DHT22;27057;51.438;-0.010;2024-03-23T05:09:36;5.10;99.90
41310;DHT22;27057;51.438;-0.010;2024-03-23T05:12:02;5.10;99.90
41310;DHT22;27057;51.438;-0.010;2024-03-23T05:14:28;5.10;99.90
41310;DHT22;27057;51.438;-0.010;2024-03-23T05:16:55;5.10;99.90
41310;DHT22;27057;51.438;-0.010;2024-03-23T05:19:22;5.10;99.90
41310;DHT22;27057;51.438;-0.010;2024-03-23T05:21:48;5.00;99.90
41310;DHT22;27057;51.438;-0.010;2024-03-23T05:24:15;5.00;99.90
41310;DHT22;27057;51.438;-0.010;2024-03-23T05:26:41;5.00;99.90
41310;DHT22;27057;51.438;-0.010;2024-03-23T05:29:07;5.00;99.90
41310;DHT22;27057;51.438;-0.010;2024-03-23T05:31:37;5.00;99.90
41310;DHT22;27057;51.438;-0.010;2024-03-23T05:34:05;5.00;99.90
41310;DHT22;27057;51.438;-0.010;2024-03-23T05:36:32;5.00;99.90
41310;DHT22;27057;51.438;-0.010;2024-03-23T05:38:58;4.90;99.90
41310;DHT22;27057;51.438;-0.010;2024-03-23T05:41:25;4.90;99.90
41310;DHT22;27057;51.438;-0.010;2024-03-23T05:43:51;4.90;99.90
41310;DHT22;27057;51.438;-0.010;2024-03-23T05:46:17;4.90;99.90
41310;DHT22;27057;51.438;-0.010;2024-03-23T05:48:44;4.90;99.90
41310;DHT22;27057;51.438;-0.010;2024-03-23T05:51:10;4.80;99.90
41310;DHT22;27057;51.438;-0.010;2024-03-23T05:53:38;4.80;99.90
41310;DHT22;27057;51.438;-0.010;2024-03-23T05:56:05;4.80;99.90
41310;DHT22;27057;51.438;-0.010;2024-03-23T05:58:35;4.80;99.90
41310;DHT22;27057;51.438;-0.010;2024-03-23T06:01:02;4.80;99.90
41310;DHT22;27057;51.438;-0.010;2024-03-23T06:03:29;4.80;99.90
41310;DHT22;27057;51.438;-0.010;2024-03-23T06:05:57;4.70;99.90
41310;DHT22;27057;51.438;-0.010;2024-03-23T06:08:23;4.70;99.90
41310;DHT22;27057;51.438;-0.010;2024-03-23T06:10:52;4.70;99.90
41310;DHT22;27057;51.438;-0.010;2024-03-23T06:13:20;4.70;99.90
41310;DHT22;27057;51.438;-0.010;2024-03-23T06:15:47;4.70;99.90
41310;DHT22;27057;51.438;-0.010;2024-03-23T06:18:15;4.70;99.90
41310;DHT22;27057;51.438;-0.010;2024-03-23T06:20:42;4.70;99.90
41310;DHT22;27057;51.438;-0.010;2024-03-23T06:23:09;4.70;99.90
41310;DHT22;27057;51.438;-0.010;2024-03-23T06:25:35;4.80;99.90
41310;DHT22;27057;51.438;-0.010;2024-03-23T06:28:02;4.80;99.90
41310;DHT22;27057;51.438;-0.010;2024-03-23T06:30:29;4.80;99.90
41310;DHT22;27057;51.438;-0.010;2024-03-23T06:32:56;4.80;99.90
41310;DHT22;27057;51.438;-0.010;2024-03-23T06:35:23;4.80;99.90
41310;DHT22;27057;51.438;-0.010;2024-03-23T06:37:49;4.80;99.90
41310;DHT22;27057;51.438;-0.010;2024-03-23T06:40:17;4.80;99.90
41310;DHT22;27057;51.438;-0.010;2024-03-23T06:42:43;4.80;99.90
41310;DHT22;27057;51.438;-0.010;2024-03-23T06:45:09;4.80;99.90
41310;DHT22;27057;51.438;-0.010;2024-03-23T06:47:36;4.80;99.90
41310;DHT22;27057;51.438;-0.010;2024-03-23T06:50:04;4.90;99.90
41310;DHT22;27057;51.438;-0.010;2024-03-23T06:52:31;4.90;99.90
41310;DHT22;27057;51.438;-0.010;2024-03-23T06:54:58;5.00;99.90
41310;DHT22;27057;51.438;-0.010;2024-03-23T06:57:24;5.00;99.90
41310;DHT22;27057;51.438;-0.010;2024-03-23T06:59:51;5.00;99.90
41310;DHT22;27057;51.438;-0.010;2024-03-23T07:02:17;5.00;99.90
41310;DHT22;27057;51.438;-0.010;2024-03-23T07:04:43;5.10;99.90
41310;DHT22;27057;51.438;-0.010;2024-03-23T07:07:11;5.10;99.90
41310;DHT22;27057;51.438;-0.010;2024-03-23T07:09:37;5.20;99.90
41310;DHT22;27057;51.438;-0.010;2024-03-23T07:12:05;5.20;99.90
41310;DHT22;27057;51.438;-0.010;2024-03-23T07:14:32;5.20;99.90
41310;DHT22;27057;51.438;-0.010;2024-03-23T07:16:58;5.30;99.90
41310;DHT22;27057;51.438;-0.010;2024-03-23T07:19:25;5.30;99.90
41310;DHT22;27057;51.438;-0.010;2024-03-23T07:21:51;5.40;99.90
41310;DHT22;27057;51.438;-0.010;2024-03-23T07:24:17;5.40;99.90
41310;DHT22;27057;51.438;-0.010;2024-03-23T07:26:44;5.40;99.90
41310;DHT22;27057;51.438;-0.010;2024-03-23T07:29:10;5.50;99.90
41310;DHT22;27057;51.438;-0.010;2024-03-23T07:31:36;5.50;99.90
41310;DHT22;27057;51.438;-0.010;2024-03-23T07:34:03;5.60;99.90
41310;DHT22;27057;51.438;-0.010;2024-03-23T07:36:29;5.60;99.90
41310;DHT22;27057;51.438;-0.010;2024-03-23T07:38:56;5.70;99.90
41310;DHT22;27057;51.438;-0.010;2024-03-23T07:41:22;5.70;99.90
41310;DHT22;27057;51.438;-0.010;2024-03-23T07:43:49;5.80;99.90
41310;DHT22;27057;51.438;-0.010;2024-03-23T07:46:18;5.80;99.90
41310;DHT22;27057;51.438;-0.010;2024-03-23T07:48:45;5.90;99.90
41310;DHT22;27057;51.438;-0.010;2024-03-23T07:51:17;5.90;99.90
41310;DHT22;27057;51.438;-0.010;2024-03-23T07:53:44;6.00;99.90
41310;DHT22;27057;51.438;-0.010;2024-03-23T07:56:15;6.00;99.90
41310;DHT22;27057;51.438;-0.010;2024-03-23T07:58:42;6.10;99.90
41310;DHT22;27057;51.438;-0.010;2024-03-23T08:01:11;6.20;99.90
41310;DHT22;27057;51.438;-0.010;2024-03-23T08:03:40;6.20;99.90
41310;DHT22;27057;51.438;-0.010;2024-03-23T08:08:40;6.40;99.90
41310;DHT22;27057;51.438;-0.010;2024-03-23T08:11:08;6.50;99.90
41310;DHT22;27057;51.438;-0.010;2024-03-23T08:13:35;6.60;99.90
41310;DHT22;27057;51.438;-0.010;2024-03-23T08:16:02;6.60;99.90
41310;DHT22;27057;51.438;-0.010;2024-03-23T08:18:29;6.70;99.90
41310;DHT22;27057;51.438;-0.010;2024-03-23T08:23:23;6.80;99.90
41310;DHT22;27057;51.438;-0.010;2024-03-23T08:25:50;6.90;99.90
41310;DHT22;27057;51.438;-0.010;2024-03-23T08:28:17;7.00;99.90
41310;DHT22;27057;51.438;-0.010;2024-03-23T08:30:43;7.00;99.90
41310;DHT22;27057;51.438;-0.010;2024-03-23T08:33:09;7.10;99.90
41310;DHT22;27057;51.438;-0.010;2024-03-23T08:35:36;7.10;99.90
41310;DHT22;27057;51.438;-0.010;2024-03-23T08:38:03;7.20;99.90
41310;DHT22;27057;51.438;-0.010;2024-03-23T08:40:29;7.20;99.90
41310;DHT22;27057;51.438;-0.010;2024-03-23T08:42:55;7.30;99.90
41310;DHT22;27057;51.438;-0.010;2024-03-23T08:45:22;7.40;99.90
41310;DHT22;27057;51.438;-0.010;2024-03-23T08:47:48;7.50;99.90
41310;DHT22;27057;51.438;-0.010;2024-03-23T08:50:14;7.50;99.90
41310;DHT22;27057;51.438;-0.010;2024-03-23T08:52:41;7.60;99.90
41310;DHT22;27057;51.438;-0.010;2024-03-23T08:55:07;7.70;99.90
41310;DHT22;27057;51.438;-0.010;2024-03-23T08:57:36;7.70;99.90
41310;DHT22;27057;51.438;-0.010;2024-03-23T09:00:02;7.80;99.90
41310;DHT22;27057;51.438;-0.010;2024-03-23T09:02:29;7.80;99.90
41310;DHT22;27057;51.438;-0.010;2024-03-23T09:04:55;7.90;99.90
41310;DHT22;27057;51.438;-0.010;2024-03-23T09:07:22;8.00;99.90
41310;DHT22;27057;51.438;-0.010;2024-03-23T09:09:48;8.00;99.90
41310;DHT22;27057;51.438;-0.010;2024-03-23T09:12:15;8.00;99.90
41310;DHT22;27057;51.438;-0.010;2024-03-23T09:14:41;8.00;99.90
41310;DHT22;27057;51.438;-0.010;2024-03-23T09:17:07;8.20;99.90
41310;DHT22;27057;51.438;-0.010;2024-03-23T09:19:34;8.10;99.90
41310;DHT22;27057;51.438;-0.010;2024-03-23T09:22:01;8.10;99.90
41310;DHT22;27057;51.438;-0.010;2024-03-23T09:24:27;8.10;99.90
41310;DHT22;27057;51.438;-0.010;2024-03-23T09:26:53;8.20;99.90
41310;DHT22;27057;51.438;-0.010;2024-03-23T09:29:20;8.30;99.90
41310;DHT22;27057;51.438;-0.010;2024-03-23T09:31:46;8.30;99.90
41310;DHT22;27057;51.438;-0.010;2024-03-23T09:34:12;8.30;99.90
41310;DHT22;27057;51.438;-0.010;2024-03-23T09:36:39;8.40;99.90
41310;DHT22;27057;51.438;-0.010;2024-03-23T09:39:07;8.40;99.90
41310;DHT22;27057;51.438;-0.010;2024-03-23T09:41:35;8.50;99.90
41310;DHT22;27057;51.438;-0.010;2024-03-23T09:44:02;8.60;99.90
41310;DHT22;27057;51.438;-0.010;2024-03-23T09:46:28;8.70;99.90
41310;DHT22;27057;51.438;-0.010;2024-03-23T09:48:56;8.80;99.90
41310;DHT22;27057;51.438;-0.010;2024-03-23T09:51:23;9.00;99.90
41310;DHT22;27057;51.438;-0.010;2024-03-23T09:53:50;9.00;99.90
41310;DHT22;27057;51.438;-0.010;2024-03-23T09:56:18;9.10;99.90
41310;DHT22;27057;51.438;-0.010;2024-03-23T09:58:44;9.10;99.90
41310;DHT22;27057;51.438;-0.010;2024-03-23T10:01:11;9.20;99.90
41310;DHT22;27057;51.438;-0.010;2024-03-23T10:03:44;9.40;99.90
41310;DHT22;27057;51.438;-0.010;2024-03-23T10:06:11;9.50;99.90
41310;DHT22;27057;51.438;-0.010;2024-03-23T10:08:38;9.50;99.90
41310;DHT22;27057;51.438;-0.010;2024-03-23T10:11:15;9.50;99.90
41310;DHT22;27057;51.438;-0.010;2024-03-23T10:13:43;9.50;99.90
41310;DHT22;27057;51.438;-0.010;2024-03-23T10:16:10;9.50;99.90
41310;DHT22;27057;51.438;-0.010;2024-03-23T10:18:37;9.50;99.90
41310;DHT22;27057;51.438;-0.010;2024-03-23T10:21:10;9.70;99.90
41310;DHT22;27057;51.438;-0.010;2024-03-23T10:23:41;9.80;99.90
41310;DHT22;27057;51.438;-0.010;2024-03-23T10:26:19;9.80;99.90
41310;DHT22;27057;51.438;-0.010;2024-03-23T10:28:59;9.90;99.90
41310;DHT22;27057;51.438;-0.010;2024-03-23T10:31:37;10.00;99.90
41310;DHT22;27057;51.438;-0.010;2024-03-23T10:34:07;10.10;99.90
41310;DHT22;27057;51.438;-0.010;2024-03-23T10:36:38;10.30;99.90
41310;DHT22;27057;51.438;-0.010;2024-03-23T10:39:08;10.30;99.90
41310;DHT22;27057;51.438;-0.010;2024-03-23T10:41:34;10.40;99.90
41310;DHT22;27057;51.438;-0.010;2024-03-23T10:44:01;10.20;99.90
41310;DHT22;27057;51.438;-0.010;2024-03-23T10:46:28;10.30;99.90
41310;DHT22;27057;51.438;-0.010;2024-03-23T10:48:55;10.30;99.90
41310;DHT22;27057;51.438;-0.010;2024-03-23T10:51:21;10.40;99.90
41310;DHT22;27057;51.438;-0.010;2024-03-23T10:53:48;10.40;99.90
41310;DHT22;27057;51.438;-0.010;2024-03-23T10:56:14;10.70;99.90
41310;DHT22;27057;51.438;-0.010;2024-03-23T10:58:44;10.70;99.90
41310;DHT22;27057;51.438;-0.010;2024-03-23T11:01:13;10.80;99.90
41310;DHT22;27057;51.438;-0.010;2024-03-23T11:03:45;10.60;99.90
41310;DHT22;27057;51.438;-0.010;2024-03-23T11:06:35;10.50;99.90
41310;DHT22;27057;51.438;-0.010;2024-03-23T11:09:02;10.50;99.90
41310;DHT22;27057;51.438;-0.010;2024-03-23T11:11:28;10.50;99.90
41310;DHT22;27057;51.438;-0.010;2024-03-23T11:13:58;10.60;99.90
41310;DHT22;27057;51.438;-0.010;2024-03-23T11:16:27;10.70;99.90
41310;DHT22;27057;51.438;-0.010;2024-03-23T11:19:33;10.70;99.90
41310;DHT22;27057;51.438;-0.010;2024-03-23T11:22:00;10.90;99.90
41310;DHT22;27057;51.438;-0.010;2024-03-23T11:24:27;11.00;99.90
41310;DHT22;27057;51.438;-0.010;2024-03-23T11:26:54;11.00;99.90
41310;DHT22;27057;51.438;-0.010;2024-03-23T11:29:20;11.20;99.90
41310;DHT22;27057;51.438;-0.010;2024-03-23T11:31:47;11.30;99.90
41310;DHT22;27057;51.438;-0.010;2024-03-23T11:34:15;11.50;99.90
41310;DHT22;27057;51.438;-0.010;2024-03-23T11:36:46;11.60;99.90
41310;DHT22;27057;51.438;-0.010;2024-03-23T11:39:17;11.80;99.90
41310;DHT22;27057;51.438;-0.010;2024-03-23T11:41:51;12.00;99.90
41310;DHT22;27057;51.438;-0.010;2024-03-23T11:44:19;11.80;99.90
41310;DHT22;27057;51.438;-0.010;2024-03-23T11:46:46;11.60;99.90
41310;DHT22;27057;51.438;-0.010;2024-03-23T11:49:26;11.40;99.90
41310;DHT22;27057;51.438;-0.010;2024-03-23T11:51:54;11.20;99.90
41310;DHT22;27057;51.438;-0.010;2024-03-23T11:54:24;11.10;99.90
41310;DHT22;27057;51.438;-0.010;2024-03-23T11:57:06;11.40;99.90
41310;DHT22;27057;51.438;-0.010;2024-03-23T12:02:00;11.70;99.90
41310;DHT22;27057;51.438;-0.010;2024-03-23T12:04:31;12.10;99.90
41310;DHT22;27057;51.438;-0.010;2024-03-23T12:07:17;12.40;99.90
41310;DHT22;27057;51.438;-0.010;2024-03-23T12:09:46;12.20;99.90
41310;DHT22;27057;51.438;-0.010;2024-03-23T12:12:18;12.40;99.90
41310;DHT22;27057;51.438;-0.010;2024-03-23T12:15:01;12.70;99.90
41310;DHT22;27057;51.438;-0.010;2024-03-23T12:17:27;12.70;99.90
41310;DHT22;27057;51.438;-0.010;2024-03-23T12:19:54;12.40;99.90
41310;DHT22;27057;51.438;-0.010;2024-03-23T12:22:21;12.50;99.90
41310;DHT22;27057;51.438;-0.010;2024-03-23T12:24:48;12.70;99.90
41310;DHT22;27057;51.438;-0.010;2024-03-23T12:27:15;12.70;99.90
41310;DHT22;27057;51.438;-0.010;2024-03-23T12:29:41;12.40;99.90
41310;DHT22;27057;51.438;-0.010;2024-03-23T12:32:09;12.50;99.90
41310;DHT22;27057;51.438;-0.010;2024-03-23T12:34:36;12.30;99.90
41310;DHT22;27057;51.438;-0.010;2024-03-23T12:37:02;12.30;99.90
41310;DHT22;27057;51.438;-0.010;2024-03-23T12:39:29;12.20;99.90
41310;DHT22;27057;51.438;-0.010;2024-03-23T12:41:55;12.00;99.90
41310;DHT22;27057;51.438;-0.010;2024-03-23T12:44:22;12.00;99.90
41310;DHT22;27057;51.438;-0.010;2024-03-23T12:46:48;11.80;99.90
41310;DHT22;27057;51.438;-0.010;2024-03-23T12:49:15;11.70;99.90
41310;DHT22;27057;51.438;-0.010;2024-03-23T12:51:57;11.70;99.90
41310;DHT22;27057;51.438;-0.010;2024-03-23T12:54:23;11.70;99.90
41310;DHT22;27057;51.438;-0.010;2024-03-23T12:56:51;11.60;99.90
41310;DHT22;27057;51.438;-0.010;2024-03-23T12:59:17;11.80;99.90
41310;DHT22;27057;51.438;-0.010;2024-03-23T13:01:45;11.90;99.90
41310;DHT22;27057;51.438;-0.010;2024-03-23T13:04:11;12.30;99.90
41310;DHT22;27057;51.438;-0.010;2024-03-23T13:06:38;12.80;99.90
41310;DHT22;27057;51.438;-0.010;2024-03-23T13:09:04;12.90;99.90
41310;DHT22;27057;51.438;-0.010;2024-03-23T13:11:31;12.60;99.90
41310;DHT22;27057;51.438;-0.010;2024-03-23T13:13:57;12.50;99.90
41310;DHT22;27057;51.438;-0.010;2024-03-23T13:16:24;12.30;99.90
41310;DHT22;27057;51.438;-0.010;2024-03-23T13:18:50;12.30;99.90
41310;DHT22;27057;51.438;-0.010;2024-03-23T13:21:18;12.10;99.90
41310;DHT22;27057;51.438;-0.010;2024-03-23T13:23:48;12.20;99.90
41310;DHT22;27057;51.438;-0.010;2024-03-23T13:26:17;12.50;99.90
41310;DHT22;27057;51.438;-0.010;2024-03-23T13:28:43;12.90;99.90
41310;DHT22;27057;51.438;-0.010;2024-03-23T13:31:10;13.40;99.90
41310;DHT22;27057;51.438;-0.010;2024-03-23T13:33:37;13.50;99.90
41310;DHT22;27057;51.438;-0.010;2024-03-23T13:36:04;13.20;99.90
41310;DHT22;27057;51.438;-0.010;2024-03-23T13:38:30;12.80;99.90
41310;DHT22;27057;51.438;-0.010;2024-03-23T13:40:58;12.30;99.90
41310;DHT22;27057;51.438;-0.010;2024-03-23T13:43:26;11.90;99.90
41310;DHT22;27057;51.438;-0.010;2024-03-23T13:45:54;11.30;99.90
41310;DHT22;27057;51.438;-0.010;2024-03-23T13:48:25;11.00;99.90
41310;DHT22;27057;51.438;-0.010;2024-03-23T13:51:02;10.80;99.90
41310;DHT22;27057;51.438;-0.010;2024-03-23T13:53:29;10.60;99.90
41310;DHT22;27057;51.438;-0.010;2024-03-23T13:55:56;10.20;99.90
41310;DHT22;27057;51.438;-0.010;2024-03-23T13:58:22;9.90;99.90
41310;DHT22;27057;51.438;-0.010;2024-03-23T14:00:52;9.50;99.90
41310;DHT22;27057;51.438;-0.010;2024-03-23T14:03:18;9.30;99.90
41310;DHT22;27057;51.438;-0.010;2024-03-23T14:05:46;9.10;99.90
41310;DHT22;27057;51.438;-0.010;2024-03-23T14:08:13;8.90;99.90
41310;DHT22;27057;51.438;-0.010;2024-03-23T14:10:43;8.70;99.90
41310;DHT22;27057;51.438;-0.010;2024-03-23T14:13:09;8.60;99.90
41310;DHT22;27057;51.438;-0.010;2024-03-23T14:15:36;8.60;99.90
41310;DHT22;27057;51.438;-0.010;2024-03-23T14:18:05;8.70;99.90
41310;DHT22;27057;51.438;-0.010;2024-03-23T14:20:31;9.00;99.90
41310;DHT22;27057;51.438;-0.010;2024-03-23T14:22:58;9.70;99.90
41310;DHT22;27057;51.438;-0.010;2024-03-23T14:25:24;10.40;99.90
41310;DHT22;27057;51.438;-0.010;2024-03-23T14:27:54;10.80;99.90
41310;DHT22;27057;51.438;-0.010;2024-03-23T14:30:21;11.20;99.90
41310;DHT22;27057;51.438;-0.010;2024-03-23T14:32:48;11.40;99.90
41310;DHT22;27057;51.438;-0.010;2024-03-23T14:35:14;11.80;99.90
41310;DHT22;27057;51.438;-0.010;2024-03-23T14:37:41;12.00;99.90
41310;DHT22;27057;51.438;-0.010;2024-03-23T14:40:08;12.30;99.90
41310;DHT22;27057;51.438;-0.010;2024-03-23T14:42:35;12.40;99.90
41310;DHT22;27057;51.438;-0.010;2024-03-23T14:45:01;12.50;99.90
41310;DHT22;27057;51.438;-0.010;2024-03-23T14:47:28;12.60;99.90
41310;DHT22;27057;51.438;-0.010;2024-03-23T14:49:54;12.60;99.90
41310;DHT22;27057;51.438;-0.010;2024-03-23T14:52:20;12.80;99.90
41310;DHT22;27057;51.438;-0.010;2024-03-23T14:54:47;12.90;99.90
41310;DHT22;27057;51.438;-0.010;2024-03-23T14:57:13;12.90;99.90
41310;DHT22;27057;51.438;-0.010;2024-03-23T14:59:40;12.60;99.90
41310;DHT22;27057;51.438;-0.010;2024-03-23T15:02:09;12.30;99.90
41310;DHT22;27057;51.438;-0.010;2024-03-23T15:04:35;12.10;99.90
41310;DHT22;27057;51.438;-0.010;2024-03-23T15:07:02;11.90;99.90
41310;DHT22;27057;51.438;-0.010;2024-03-23T15:09:28;12.10;99.90
41310;DHT22;27057;51.438;-0.010;2024-03-23T15:11:55;12.50;99.90
41310;DHT22;27057;51.438;-0.010;2024-03-23T15:14:23;12.90;99.90
41310;DHT22;27057;51.438;-0.010;2024-03-23T15:16:49;13.10;99.90
41310;DHT22;27057;51.438;-0.010;2024-03-23T15:19:17;13.50;99.90
41310;DHT22;27057;51.438;-0.010;2024-03-23T15:21:44;13.60;99.90
41310;DHT22;27057;51.438;-0.010;2024-03-23T15:24:10;13.70;99.90
41310;DHT22;27057;51.438;-0.010;2024-03-23T15:26:39;13.70;99.90
41310;DHT22;27057;51.438;-0.010;2024-03-23T15:29:07;13.80;99.90
41310;DHT22;27057;51.438;-0.010;2024-03-23T15:31:38;13.80;99.90
41310;DHT22;27057;51.438;-0.010;2024-03-23T15:34:05;13.60;99.90
41310;DHT22;27057;51.438;-0.010;2024-03-23T15:36:37;14.00;99.90
41310;DHT22;27057;51.438;-0.010;2024-03-23T15:39:05;14.30;99.90
41310;DHT22;27057;51.438;-0.010;2024-03-23T15:41:32;14.50;99.90
41310;DHT22;27057;51.438;-0.010;2024-03-23T15:44:02;14.40;99.90
41310;DHT22;27057;51.438;-0.010;2024-03-23T15:46:28;13.70;99.90
41310;DHT22;27057;51.438;-0.010;2024-03-23T15:48:55;12.70;99.90
41310;DHT22;27057;51.438;-0.010;2024-03-23T15:51:22;12.10;99.90
41310;DHT22;27057;51.438;-0.010;2024-03-23T15:53:48;11.50;99.90
41310;DHT22;27057;51.438;-0.010;2024-03-23T15:56:16;11.20;99.90
41310;DHT22;27057;51.438;-0.010;2024-03-23T15:58:42;10.50;99.90
41310;DHT22;27057;51.438;-0.010;2024-03-23T16:01:09;9.40;99.90
41310;DHT22;27057;51.438;-0.010;2024-03-23T16:03:37;8.20;99.90
41310;DHT22;27057;51.438;-0.010;2024-03-23T16:06:05;7.40;99.90
41310;DHT22;27057;51.438;-0.010;2024-03-23T16:08:33;7.00;99.90
41310;DHT22;27057;51.438;-0.010;2024-03-23T16:11:06;6.90;99.90
41310;DHT22;27057;51.438;-0.010;2024-03-23T16:13:34;6.90;99.90
41310;DHT22;27057;51.438;-0.010;2024-03-23T16:16:02;7.50;99.90
41310;DHT22;27057;51.438;-0.010;2024-03-23T16:18:37;8.50;99.90
41310;DHT22;27057;51.438;-0.010;2024-03-23T16:21:06;9.70;99.90
41310;DHT22;27057;51.438;-0.010;2024-03-23T16:23:34;10.70;99.90
41310;DHT22;27057;51.438;-0.010;2024-03-23T16:26:01;11.40;99.90
41310;DHT22;27057;51.438;-0.010;2024-03-23T16:28:30;11.90;99.90